Time;durP1;ratioP1;P1;durP2;ratioP2;P2;SDS_P1;SDS_P2;PMS_P1;PMS_P2;Temp;Humidity;BMP_temperature;BMP_pressure;BME280_temperature;BME280_humidity;BME280_pressure;Samples;Min_cycle;Max_cycle;Signal;HPM_P1;HPM_P2
2021/08/10 00:01:10;;;;;;;6.37;4.17;;;19.10;99.90;;;;;;4999389;28;20498;-63
2021/08/10 00:03:37;;;;;;;5.10;4.60;;;19.10;99.90;;;;;;4980907;28;20452;-64
2021/08/10 00:06:05;;;;;;;5.20;4.00;;;18.80;99.90;;;;;;4994502;28;20471;-62
2021/08/10 00:08:32;;;;;;;8.70;4.00;;;18.60;99.90;;;;;;4997291;28;20480;-63
2021/08/10 00:10:59;;;;;;;8.00;3.97;;;18.40;99.90;;;;;;4992199;28;20818;-62
2021/08/10 00:13:26;;;;;;;6.30;4.90;;;18.40;99.90;;;;;;4989553;28;20517;-64
2021/08/10 00:15:53;;;;;;;5.07;3.87;;;18.40;99.90;;;;;;5029422;28;20539;-62
2021/08/10 00:18:20;;;;;;;5.57;3.70;;;18.60;99.90;;;;;;4993827;28;20797;-63
2021/08/10 00:20:50;;;;;;;4.40;3.97;;;18.80;99.90;;;;;;4992152;28;20440;-63
2021/08/10 00:23:17;;;;;;;6.70;3.60;;;18.90;99.90;;;;;;4987452;28;20513;-62
2021/08/10 00:25:47;;;;;;;8.67;4.50;;;18.70;99.90;;;;;;4988370;28;20559;-63
2021/08/10 00:28:15;;;;;;;5.13;4.40;;;18.60;99.90;;;;;;4998427;28;20495;-64
2021/08/10 00:30:44;;;;;;;7.20;4.70;;;18.60;99.90;;;;;;5000540;28;20466;-62
2021/08/10 00:33:13;;;;;;;5.93;4.17;;;18.60;99.90;;;;;;5006682;28;20606;-64
2021/08/10 00:35:40;;;;;;;5.00;4.07;;;18.50;99.90;;;;;;4998018;28;20515;-62
2021/08/10 00:38:08;;;;;;;7.07;4.30;;;18.50;99.90;;;;;;4988540;28;20437;-63
2021/08/10 00:40:36;;;;;;;10.03;4.50;;;18.40;99.90;;;;;;4997357;28;20417;-64
2021/08/10 00:43:22;;;;;;;5.30;3.80;;;18.40;99.90;;;;;;4990479;28;20545;-63
2021/08/10 00:45:49;;;;;;;4.47;3.93;;;18.40;99.90;;;;;;4986523;28;20762;-63
2021/08/10 00:48:19;;;;;;;3.80;3.20;;;18.30;99.90;;;;;;4996944;28;20751;-64
2021/08/10 00:50:47;;;;;;;4.13;3.83;;;18.30;99.90;;;;;;4999069;28;20453;-63
2021/08/10 00:53:14;;;;;;;10.40;6.13;;;18.30;99.90;;;;;;5004518;28;20821;-63
2021/08/10 00:55:41;;;;;;;4.73;4.27;;;18.20;99.90;;;;;;4991655;28;20481;-64
2021/08/10 00:58:10;;;;;;;7.93;3.73;;;18.20;99.90;;;;;;4984043;28;20437;-63
2021/08/10 01:00:37;;;;;;;5.17;4.23;;;18.20;99.90;;;;;;4996993;28;20454;-63
2021/08/10 01:03:05;;;;;;;5.07;4.63;;;18.30;99.90;;;;;;4983984;28;20439;-64
2021/08/10 01:05:34;;;;;;;7.90;4.40;;;18.30;99.90;;;;;;4998714;28;20600;-63
2021/08/10 01:08:32;;;;;;;4.37;3.97;;;18.40;99.90;;;;;;5011001;28;20440;-63
2021/08/10 01:11:02;;;;;;;4.40;4.00;;;18.40;99.90;;;;;;5004070;28;20439;-64
2021/08/10 01:13:37;;;;;;;6.53;4.13;;;18.50;99.90;;;;;;4987498;28;20536;-63
2021/08/10 01:16:19;;;;;;;3.63;3.33;;;18.40;99.90;;;;;;4993561;28;20430;-63
2021/08/10 01:19:27;;;;;;;5.60;3.83;;;18.50;99.90;;;;;;4984798;28;20437;-62
2021/08/10 01:21:57;;;;;;;6.37;3.80;;;18.40;99.90;;;;;;4997276;28;20488;-63
2021/08/10 01:24:32;;;;;;;4.03;3.70;;;18.30;99.90;;;;;;5008734;28;20764;-64
2021/08/10 01:27:29;;;;;;;9.23;4.80;;;18.20;99.90;;;;;;4992814;28;20556;-62
2021/08/10 01:30:21;;;;;;;6.27;3.93;;;18.10;99.90;;;;;;4978955;28;20416;-62
2021/08/10 01:32:50;;;;;;;8.70;4.43;;;17.70;99.90;;;;;;4997049;28;20409;-62
2021/08/10 01:35:19;;;;;;;4.90;3.80;;;17.50;99.90;;;;;;4996525;28;20658;-62
2021/08/10 01:37:51;;;;;;;4.23;3.83;;;17.50;99.90;;;;;;4997591;28;20477;-62
2021/08/10 01:40:19;;;;;;;6.53;4.07;;;17.70;99.90;;;;;;4996705;28;20762;-62
2021/08/10 01:42:47;;;;;;;5.80;3.47;;;17.80;99.90;;;;;;5005657;28;20465;-63
2021/08/10 01:45:16;;;;;;;4.33;3.93;;;17.80;99.90;;;;;;4987875;28;20444;-63
2021/08/10 01:47:47;;;;;;;6.67;3.20;;;17.80;99.90;;;;;;4997309;28;20677;-63
2021/08/10 01:50:15;;;;;;;6.70;4.17;;;17.70;99.90;;;;;;4982558;28;20462;-64
2021/08/10 01:52:43;;;;;;;5.30;3.70;;;17.60;99.90;;;;;;4999311;28;20750;-64
2021/08/10 01:55:11;;;;;;;5.80;3.87;;;17.60;99.90;;;;;;4988723;28;20507;-63
2021/08/10 01:57:40;;;;;;;3.80;3.40;;;17.60;99.90;;;;;;4981056;28;20415;-62
2021/08/10 02:00:08;;;;;;;5.43;4.33;;;17.50;99.90;;;;;;4991594;28;20545;-63
2021/08/10 02:02:35;;;;;;;8.50;5.30;;;17.50;99.90;;;;;;4983863;28;20433;-63
2021/08/10 02:05:03;;;;;;;4.83;4.47;;;17.40;99.90;;;;;;4989560;28;20591;-64
2021/08/10 02:07:31;;;;;;;7.20;4.27;;;17.30;99.90;;;;;;4985539;28;20413;-64
2021/08/10 02:10:00;;;;;;;13.63;3.67;;;17.40;99.90;;;;;;5007705;28;20492;-62
2021/08/10 02:12:30;;;;;;;14.40;4.67;;;17.30;99.90;;;;;;5002114;28;20424;-63
2021/08/10 02:14:59;;;;;;;10.13;3.80;;;17.10;99.90;;;;;;4999648;28;20667;-63
2021/08/10 02:17:26;;;;;;;3.87;3.27;;;17.20;99.90;;;;;;4999852;28;20495;-64
2021/08/10 02:19:53;;;;;;;9.43;4.10;;;17.20;99.90;;;;;;4999802;28;20482;-63
2021/08/10 02:22:22;;;;;;;7.90;4.13;;;17.20;99.90;;;;;;5016056;28;20442;-64
2021/08/10 02:25:10;;;;;;;4.90;4.40;;;17.20;99.90;;;;;;5000160;28;20488;-63
2021/08/10 02:27:45;;;;;;;4.50;4.10;;;17.20;99.90;;;;;;4998186;28;20462;-63
2021/08/10 02:30:14;;;;;;;4.53;4.13;;;17.20;99.90;;;;;;4987144;28;20410;-63
2021/08/10 02:32:43;;;;;;;14.40;4.20;;;17.10;99.90;;;;;;4997623;28;20417;-63
2021/08/10 02:35:12;;;;;;;4.30;3.90;;;17.10;99.90;;;;;;5000760;28;20652;-63
2021/08/10 02:37:42;;;;;;;4.17;3.70;;;16.90;99.90;;;;;;4999035;28;20453;-63
2021/08/10 02:40:13;;;;;;;4.80;3.97;;;16.90;99.90;;;;;;4998963;28;20435;-63
2021/08/10 02:42:46;;;;;;;4.10;3.73;;;17.00;99.90;;;;;;4999983;28;20501;-63
2021/08/10 02:45:14;;;;;;;4.23;3.10;;;16.90;99.90;;;;;;4999087;28;20504;-63
2021/08/10 02:47:52;;;;;;;5.77;4.17;;;17.00;99.90;;;;;;4989943;28;20440;-63
2021/08/10 02:50:20;;;;;;;5.80;4.20;;;16.90;99.90;;;;;;4993796;28;20439;-63
2021/08/10 02:52:47;;;;;;;7.83;4.67;;;16.90;99.90;;;;;;4985622;28;20660;-64
2021/08/10 02:55:18;;;;;;;4.23;3.57;;;16.90;99.90;;;;;;4999067;28;20815;-63
2021/08/10 02:58:14;;;;;;;3.97;3.63;;;16.80;99.90;;;;;;4998948;28;20431;-64
2021/08/10 03:01:03;;;;;;;5.40;4.80;;;16.80;99.90;;;;;;4983815;28;20418;-64
2021/08/10 03:03:32;;;;;;;5.53;4.40;;;16.70;99.90;;;;;;4989489;28;20888;-63
2021/08/10 03:06:03;;;;;;;4.63;4.27;;;16.70;99.90;;;;;;4998831;28;20571;-64
2021/08/10 03:08:35;;;;;;;6.27;4.00;;;16.60;99.90;;;;;;4998951;28;20439;-63
2021/08/10 03:11:05;;;;;;;11.10;4.33;;;16.60;99.90;;;;;;4997035;28;20445;-62
2021/08/10 03:13:37;;;;;;;4.83;4.40;;;16.60;99.90;;;;;;5006259;28;20439;-63
2021/08/10 03:16:06;;;;;;;5.30;4.80;;;16.60;99.90;;;;;;5004240;28;20437;-62
2021/08/10 03:18:36;;;;;;;4.70;4.30;;;16.50;99.90;;;;;;5009811;28;20442;-64
2021/08/10 03:21:05;;;;;;;6.47;4.33;;;16.50;99.90;;;;;;4984895;28;20634;-62
2021/08/10 03:23:36;;;;;;;4.53;4.13;;;16.50;99.90;;;;;;5005891;28;20445;-64
2021/08/10 03:26:04;;;;;;;6.28;5.68;;;16.50;99.90;;;;;;5017384;28;20466;-64
2021/08/10 03:28:33;;;;;;;8.63;4.90;;;16.50;99.90;;;;;;4989347;28;20263;-63
2021/08/10 03:31:01;;;;;;;6.10;4.60;;;16.50;99.90;;;;;;4998229;28;20774;-63
2021/08/10 03:33:29;;;;;;;5.40;4.75;;;16.50;99.90;;;;;;5009609;28;20452;-62
2021/08/10 03:35:57;;;;;;;9.80;5.47;;;16.50;99.90;;;;;;5006841;28;20228;-62
2021/08/10 03:38:25;;;;;;;7.07;5.18;;;16.40;99.90;;;;;;5007823;28;20437;-63
2021/08/10 03:40:54;;;;;;;6.10;4.20;;;16.50;99.90;;;;;;5001474;28;20201;-62
2021/08/10 03:43:21;;;;;;;6.65;4.68;;;16.50;99.90;;;;;;5006591;28;20250;-63
2021/08/10 03:45:52;;;;;;;6.77;5.83;;;16.50;99.90;;;;;;5003658;28;20206;-63
2021/08/10 03:48:20;;;;;;;5.47;4.97;;;16.60;99.90;;;;;;5012418;28;20449;-62
2021/08/10 03:50:50;;;;;;;10.83;6.20;;;16.60;99.90;;;;;;5005714;28;20826;-63
2021/08/10 03:53:21;;;;;;;5.20;4.70;;;16.60;99.90;;;;;;5008269;28;20700;-63
2021/08/10 03:55:50;;;;;;;7.53;4.37;;;16.70;99.90;;;;;;5000123;28;20502;-63
2021/08/10 03:58:21;;;;;;;10.30;5.70;;;16.70;99.90;;;;;;5003471;28;20439;-62
2021/08/10 04:00:51;;;;;;;15.60;4.93;;;16.80;99.90;;;;;;4994161;28;20485;-63
2021/08/10 04:03:19;;;;;;;4.70;3.90;;;16.90;99.90;;;;;;4997496;28;20812;-64
2021/08/10 04:05:49;;;;;;;7.93;5.00;;;16.90;99.90;;;;;;4983504;28;20606;-65
2021/08/10 04:08:17;;;;;;;5.90;4.27;;;17.00;99.90;;;;;;4989873;28;20454;-62
2021/08/10 04:10:46;;;;;;;6.20;4.73;;;17.10;99.90;;;;;;4990663;28;20454;-65
2021/08/10 04:13:15;;;;;;;8.33;5.20;;;17.20;99.90;;;;;;4997408;28;20446;-63
2021/08/10 04:15:47;;;;;;;7.20;4.87;;;17.30;99.90;;;;;;4996531;28;20853;-63
2021/08/10 04:18:18;;;;;;;5.70;4.80;;;17.30;99.90;;;;;;4997299;28;20447;-63
2021/08/10 04:20:46;;;;;;;6.30;5.03;;;17.50;99.90;;;;;;4997369;28;20956;-63
2021/08/10 04:23:14;;;;;;;6.37;5.27;;;17.50;99.90;;;;;;4995469;28;20420;-63
2021/08/10 04:25:41;;;;;;;7.07;5.00;;;17.60;99.90;;;;;;4998011;28;20446;-63
2021/08/10 04:28:08;;;;;;;7.07;4.70;;;17.60;99.90;;;;;;5002378;28;20446;-64
2021/08/10 04:30:40;;;;;;;8.50;4.50;;;17.60;99.90;;;;;;5002834;28;20519;-63
2021/08/10 04:33:08;;;;;;;5.30;4.10;;;17.60;99.90;;;;;;5002189;28;20797;-64
2021/08/10 04:35:35;;;;;;;5.50;4.47;;;17.60;99.90;;;;;;5001947;28;20522;-63
2021/08/10 04:38:03;;;;;;;5.97;5.20;;;17.60;99.90;;;;;;5002171;28;20444;-63
2021/08/10 04:40:31;;;;;;;6.93;4.40;;;17.80;99.90;;;;;;5002684;28;20522;-64
2021/08/10 04:42:59;;;;;;;8.30;4.43;;;17.90;99.90;;;;;;5002152;28;20421;-63
2021/08/10 04:45:26;;;;;;;5.47;4.00;;;17.90;99.90;;;;;;5001783;28;20439;-65
2021/08/10 04:47:53;;;;;;;4.90;4.33;;;18.00;99.90;;;;;;5001381;28;20443;-62
2021/08/10 04:50:21;;;;;;;4.30;3.90;;;18.00;99.90;;;;;;5001922;28;20486;-62
2021/08/10 04:52:48;;;;;;;5.20;4.40;;;18.00;99.90;;;;;;5001663;28;20421;-62
2021/08/10 04:55:15;;;;;;;7.13;4.27;;;18.10;99.90;;;;;;5001362;28;20502;-63
2021/08/10 04:57:42;;;;;;;4.67;3.70;;;18.10;99.90;;;;;;5001293;28;20828;-62
2021/08/10 05:00:10;;;;;;;6.50;4.47;;;18.10;99.90;;;;;;5001723;28;20480;-63
2021/08/10 05:02:38;;;;;;;4.13;3.53;;;18.20;99.90;;;;;;5001968;28;20575;-64
2021/08/10 05:05:06;;;;;;;5.00;3.63;;;18.20;99.90;;;;;;5001626;28;20844;-63
2021/08/10 05:07:35;;;;;;;7.97;3.70;;;18.20;99.90;;;;;;5001898;28;20520;-64
2021/08/10 05:10:03;;;;;;;4.70;4.30;;;18.30;99.90;;;;;;5002076;28;20450;-64
2021/08/10 05:12:31;;;;;;;4.90;4.40;;;18.40;99.90;;;;;;5001855;28;20661;-63
2021/08/10 05:14:58;;;;;;;5.00;3.40;;;18.50;99.90;;;;;;5001404;28;20673;-62
2021/08/10 05:17:25;;;;;;;4.60;4.20;;;18.60;99.90;;;;;;5001544;28;20507;-63
2021/08/10 05:19:52;;;;;;;9.80;3.87;;;18.80;99.90;;;;;;5001337;28;20451;-63
2021/08/10 05:22:20;;;;;;;8.40;4.70;;;18.90;99.90;;;;;;5002222;28;20439;-64
2021/08/10 05:24:47;;;;;;;5.40;4.50;;;19.00;99.90;;;;;;5001844;28;20443;-65
2021/08/10 05:27:14;;;;;;;5.17;4.70;;;19.40;99.90;;;;;;5008934;28;20543;-65
2021/08/10 05:29:41;;;;;;;7.93;4.30;;;19.80;99.90;;;;;;5000616;28;20439;-63
2021/08/10 05:32:08;;;;;;;7.43;4.27;;;20.00;99.90;;;;;;5011645;28;20654;-64
2021/08/10 05:34:35;;;;;;;4.50;4.10;;;20.40;99.90;;;;;;4997571;28;20458;-64
2021/08/10 05:37:02;;;;;;;9.60;5.17;;;20.60;99.90;;;;;;5000394;28;20486;-64
2021/08/10 05:39:29;;;;;;;7.37;5.00;;;20.90;99.90;;;;;;5003942;28;20413;-64
2021/08/10 05:41:56;;;;;;;5.03;4.20;;;20.90;99.90;;;;;;5000751;28;20485;-64
2021/08/10 05:44:23;;;;;;;4.43;3.60;;;21.10;99.90;;;;;;4998398;28;20456;-65
2021/08/10 05:46:51;;;;;;;7.43;4.73;;;21.40;99.90;;;;;;4998864;28;20798;-63
2021/08/10 05:49:18;;;;;;;6.90;4.50;;;21.50;99.90;;;;;;4991131;28;20436;-64
2021/08/10 05:51:45;;;;;;;4.40;4.00;;;21.90;99.90;;;;;;5001612;28;20491;-63
2021/08/10 05:54:13;;;;;;;7.03;4.70;;;22.10;99.90;;;;;;4987078;28;20508;-64
2021/08/10 05:56:40;;;;;;;4.17;3.97;;;22.30;99.90;;;;;;4957435;28;20949;-63
2021/08/10 05:59:09;;;;;;;5.23;4.20;;;22.40;99.90;;;;;;4999949;28;20442;-64
2021/08/10 06:01:37;;;;;;;3.97;3.67;;;22.50;99.90;;;;;;4999816;28;20502;-64
2021/08/10 06:04:05;;;;;;;4.33;3.97;;;22.50;99.90;;;;;;4989091;28;20439;-65
2021/08/10 06:06:34;;;;;;;5.07;4.10;;;22.60;99.90;;;;;;4993102;28;20853;-64
2021/08/10 06:09:04;;;;;;;4.83;3.97;;;22.80;99.90;;;;;;5005772;28;20474;-64
2021/08/10 06:11:32;;;;;;;9.60;3.63;;;23.10;99.90;;;;;;4999752;28;20486;-64
2021/08/10 06:14:00;;;;;;;4.37;4.07;;;23.50;99.90;;;;;;4999897;28;20410;-63
2021/08/10 06:16:27;;;;;;;5.10;4.70;;;24.10;99.90;;;;;;4998533;28;20478;-64
2021/08/10 06:18:54;;;;;;;5.00;4.60;;;24.50;99.90;;;;;;5001994;28;20458;-66
2021/08/10 06:21:21;;;;;;;5.80;5.30;;;24.90;99.90;;;;;;5004093;28;20441;-64
2021/08/10 06:23:48;;;;;;;5.43;4.97;;;25.60;99.90;;;;;;5002406;28;20439;-64
2021/08/10 06:26:15;;;;;;;7.07;5.00;;;26.00;99.90;;;;;;5000550;28;20439;-64
2021/08/10 06:28:42;;;;;;;4.43;4.20;;;26.20;99.90;;;;;;4998101;28;20410;-64
2021/08/10 06:31:09;;;;;;;5.50;5.03;;;26.70;99.90;;;;;;4999366;28;20411;-64
2021/08/10 06:33:37;;;;;;;5.50;5.20;;;27.40;99.50;;;;;;5005358;28;20616;-65
2021/08/10 06:36:04;;;;;;;5.00;4.60;;;28.00;97.90;;;;;;5004854;28;20468;-63
2021/08/10 06:38:32;;;;;;;7.57;5.57;;;27.80;96.40;;;;;;5004220;28;20593;-63
2021/08/10 06:41:00;;;;;;;7.23;4.87;;;27.90;96.40;;;;;;5004414;28;20991;-65
2021/08/10 06:43:27;;;;;;;5.13;4.90;;;27.90;96.00;;;;;;4997187;28;20876;-64
2021/08/10 06:45:54;;;;;;;6.03;5.37;;;28.00;96.10;;;;;;4998976;28;20891;-63
2021/08/10 06:48:21;;;;;;;6.87;6.23;;;28.00;95.70;;;;;;5006524;28;20420;-65
2021/08/10 06:50:48;;;;;;;5.30;5.00;;;27.80;96.00;;;;;;4995198;28;20765;-65
2021/08/10 06:53:17;;;;;;;5.90;5.50;;;27.60;95.80;;;;;;4989650;28;20437;-64
2021/08/10 06:55:44;;;;;;;5.80;5.50;;;27.50;95.50;;;;;;4983153;28;20512;-64
2021/08/10 06:58:12;;;;;;;6.30;5.90;;;28.10;94.60;;;;;;4999490;28;20449;-64
2021/08/10 07:00:39;;;;;;;5.50;5.20;;;28.40;94.30;;;;;;4998669;28;20500;-65
2021/08/10 07:03:07;;;;;;;6.97;6.47;;;28.50;94.40;;;;;;4992776;28;20488;-64
2021/08/10 07:05:36;;;;;;;6.63;6.30;;;29.30;92.80;;;;;;4996344;28;20493;-64
2021/08/10 07:08:03;;;;;;;7.77;7.37;;;30.00;91.70;;;;;;4999731;28;20411;-64
2021/08/10 07:10:31;;;;;;;6.83;6.53;;;30.60;90.20;;;;;;5005703;28;20447;-64
2021/08/10 07:13:00;;;;;;;7.80;7.00;;;30.60;87.10;;;;;;5008261;28;20432;-65
2021/08/10 07:15:27;;;;;;;7.30;6.90;;;29.70;90.40;;;;;;5002845;28;20457;-65
2021/08/10 07:18:01;;;;;;;7.53;6.90;;;29.10;91.00;;;;;;5002922;28;20550;-63
2021/08/10 07:20:28;;;;;;;7.33;6.63;;;28.90;90.90;;;;;;5007929;28;20439;-64
2021/08/10 07:22:55;;;;;;;6.37;5.90;;;30.00;90.40;;;;;;4999789;28;20434;-64
2021/08/10 07:25:23;;;;;;;7.57;7.17;;;31.00;88.00;;;;;;5000350;28;20528;-65
2021/08/10 07:27:50;;;;;;;10.43;7.30;;;32.40;85.20;;;;;;5008899;28;20466;-64
2021/08/10 07:30:18;;;;;;;9.00;8.20;;;34.00;79.30;;;;;;4997708;28;20716;-63
2021/08/10 07:32:47;;;;;;;7.90;7.50;;;35.90;73.50;;;;;;4999382;28;20447;-63
2021/08/10 07:35:23;;;;;;;9.23;8.63;;;36.70;66.90;;;;;;4985570;28;20482;-65
2021/08/10 07:37:53;;;;;;;8.60;8.20;;;37.60;65.00;;;;;;4999364;28;20443;-64
2021/08/10 07:40:21;;;;;;;8.90;8.30;;;37.00;62.90;;;;;;4986696;28;20439;-64
2021/08/10 07:42:48;;;;;;;10.47;9.87;;;37.00;63.20;;;;;;5012667;28;20446;-64
2021/08/10 07:45:25;;;;;;;9.80;9.10;;;37.10;62.20;;;;;;5006740;28;20769;-64
2021/08/10 07:47:55;;;;;;;10.00;9.43;;;37.40;60.90;;;;;;4997081;28;20451;-64
2021/08/10 07:50:22;;;;;;;9.87;9.17;;;37.10;60.80;;;;;;4995828;28;20758;-65
2021/08/10 07:52:49;;;;;;;9.90;9.30;;;37.00;61.50;;;;;;4998363;28;20810;-65
2021/08/10 07:55:22;;;;;;;10.60;10.03;;;36.90;62.10;;;;;;4999708;28;20479;-64
2021/08/10 07:57:55;;;;;;;10.20;9.60;;;36.40;61.00;;;;;;4993468;28;20762;-64
2021/08/10 08:00:32;;;;;;;10.13;9.73;;;36.80;60.70;;;;;;4993428;28;20435;-66
2021/08/10 08:03:15;;;;;;;10.00;9.50;;;36.90;60.00;;;;;;4988887;28;20498;-64
2021/08/10 08:05:43;;;;;;;9.10;8.50;;;35.80;60.60;;;;;;5004228;28;20473;-65
2021/08/10 08:08:11;;;;;;;8.93;8.60;;;35.00;62.10;;;;;;4991473;28;20705;-64
2021/08/10 08:10:38;;;;;;;10.20;9.60;;;34.60;64.20;;;;;;4979814;28;20479;-64
2021/08/10 08:13:22;;;;;;;8.70;8.30;;;34.90;63.60;;;;;;4982356;28;20508;-64
2021/08/10 08:15:49;;;;;;;9.00;8.60;;;34.80;61.70;;;;;;4981277;28;20476;-64
2021/08/10 08:18:17;;;;;;;8.90;8.50;;;35.20;62.20;;;;;;4980633;28;20792;-66
2021/08/10 08:20:46;;;;;;;9.30;8.73;;;35.90;60.00;;;;;;4991731;28;20482;-66
2021/08/10 08:23:14;;;;;;;12.10;10.30;;;36.10;59.70;;;;;;4989551;28;20442;-65
2021/08/10 08:25:42;;;;;;;10.40;9.40;;;36.70;58.30;;;;;;5016922;28;20481;-65
2021/08/10 08:28:13;;;;;;;9.80;9.40;;;37.00;58.00;;;;;;5008027;28;20525;-65
2021/08/10 08:30:41;;;;;;;9.17;8.83;;;36.80;57.00;;;;;;5003189;28;20450;-65
2021/08/10 08:33:11;;;;;;;10.20;9.70;;;37.20;56.40;;;;;;4998803;28;20468;-66
2021/08/10 08:35:39;;;;;;;10.10;9.70;;;37.10;55.90;;;;;;5007057;28;20554;-65
2021/08/10 08:38:07;;;;;;;9.83;9.30;;;37.50;54.40;;;;;;5008332;28;20501;-65
2021/08/10 08:40:41;;;;;;;9.30;8.80;;;37.30;54.30;;;;;;5004014;28;20442;-64
2021/08/10 08:43:13;;;;;;;9.13;8.70;;;37.40;54.00;;;;;;4990500;28;20440;-66
2021/08/10 08:45:46;;;;;;;9.77;9.17;;;37.60;53.60;;;;;;4994978;28;20434;-66
2021/08/10 08:48:14;;;;;;;10.73;9.90;;;37.60;53.50;;;;;;5010738;28;20443;-64
2021/08/10 08:50:46;;;;;;;10.37;9.50;;;37.50;53.80;;;;;;5011021;28;20486;-65
2021/08/10 08:53:15;;;;;;;9.80;9.50;;;37.90;53.00;;;;;;5012900;28;20443;-64
2021/08/10 08:55:44;;;;;;;10.33;9.80;;;38.50;50.70;;;;;;4997566;28;20590;-64
2021/08/10 08:58:13;;;;;;;10.27;9.80;;;38.50;49.50;;;;;;4998081;28;20693;-65
2021/08/10 09:00:40;;;;;;;10.13;9.53;;;39.30;49.10;;;;;;4998153;28;20444;-64
2021/08/10 09:03:07;;;;;;;11.70;11.00;;;40.20;48.20;;;;;;4997028;28;20447;-65
2021/08/10 09:05:39;;;;;;;10.80;10.40;;;41.30;46.90;;;;;;5020047;28;20482;-64
2021/08/10 09:08:41;;;;;;;11.40;10.90;;;41.60;45.50;;;;;;5017561;28;20601;-64
2021/08/10 09:11:14;;;;;;;10.63;10.23;;;41.60;45.80;;;;;;4970976;28;20466;-66
2021/08/10 09:13:57;;;;;;;10.43;10.03;;;41.70;46.00;;;;;;5000862;28;20439;-65
2021/08/10 09:16:24;;;;;;;10.93;10.53;;;40.60;46.00;;;;;;4999806;28;20485;-66
2021/08/10 09:18:52;;;;;;;10.40;9.63;;;38.50;48.40;;;;;;5001550;28;20470;-64
2021/08/10 09:21:21;;;;;;;9.10;8.60;;;37.30;49.80;;;;;;5012001;28;20762;-65
2021/08/10 09:23:53;;;;;;;9.60;9.00;;;36.20;50.80;;;;;;4998411;28;20439;-66
2021/08/10 09:26:36;;;;;;;9.53;9.23;;;35.10;51.60;;;;;;5000690;28;20459;-66
2021/08/10 09:29:04;;;;;;;9.27;8.77;;;35.00;52.60;;;;;;5028712;28;20451;-65
2021/08/10 09:31:46;;;;;;;9.37;9.07;;;34.80;54.40;;;;;;4997622;28;20436;-65
2021/08/10 09:34:28;;;;;;;9.57;9.07;;;34.50;53.60;;;;;;4998294;28;20505;-64
2021/08/10 09:36:57;;;;;;;10.27;9.77;;;34.50;54.00;;;;;;4997895;28;20478;-65
2021/08/10 09:39:35;;;;;;;8.50;8.20;;;34.00;53.50;;;;;;4999903;28;20462;-65
2021/08/10 09:42:06;;;;;;;8.70;8.20;;;33.50;54.10;;;;;;4994607;28;20439;-65
2021/08/10 09:44:33;;;;;;;9.97;9.13;;;33.10;54.10;;;;;;4993987;28;20674;-66
2021/08/10 09:47:01;;;;;;;9.00;8.60;;;32.90;54.70;;;;;;4987345;28;20673;-64
2021/08/10 09:49:43;;;;;;;9.10;8.60;;;33.00;56.10;;;;;;4989640;28;20432;-64
2021/08/10 09:52:26;;;;;;;8.43;8.13;;;33.00;57.50;;;;;;4991370;28;20436;-65
2021/08/10 09:55:08;;;;;;;10.10;9.30;;;33.10;55.90;;;;;;4987964;28;20445;-64
2021/08/10 09:57:35;;;;;;;8.30;8.00;;;32.60;56.50;;;;;;5013576;28;20469;-65
2021/08/10 10:00:03;;;;;;;8.90;8.50;;;31.50;56.60;;;;;;4999772;28;20453;-65
2021/08/10 10:02:30;;;;;;;8.97;8.30;;;30.80;57.20;;;;;;4996511;28;20464;-65
2021/08/10 10:04:58;;;;;;;8.67;8.07;;;30.90;57.60;;;;;;4998534;28;20618;-65
2021/08/10 10:07:26;;;;;;;8.10;7.67;;;31.20;57.70;;;;;;4996389;28;20442;-65
2021/08/10 10:09:53;;;;;;;6.97;6.77;;;30.90;57.00;;;;;;4998393;28;20442;-65
2021/08/10 10:12:22;;;;;;;7.87;7.57;;;30.70;56.20;;;;;;4996433;28;20435;-65
2021/08/10 10:14:50;;;;;;;7.90;7.60;;;30.80;56.00;;;;;;4997688;28;20445;-65
2021/08/10 10:17:17;;;;;;;8.10;7.63;;;31.00;55.90;;;;;;4997866;28;20524;-66
2021/08/10 10:19:45;;;;;;;8.17;7.77;;;30.80;57.00;;;;;;4999441;28;20437;-64
2021/08/10 10:22:22;;;;;;;7.70;7.40;;;30.90;56.90;;;;;;4999798;28;20491;-67
2021/08/10 10:24:52;;;;;;;8.00;7.60;;;31.00;57.80;;;;;;5010879;28;20448;-65
2021/08/10 10:27:20;;;;;;;7.97;7.67;;;31.20;55.80;;;;;;5000455;28;20526;-65
2021/08/10 10:29:49;;;;;;;7.30;7.00;;;31.30;55.80;;;;;;5000491;28;20695;-65
2021/08/10 10:32:20;;;;;;;7.60;7.30;;;31.20;55.90;;;;;;4999627;28;20444;-65
2021/08/10 10:34:48;;;;;;;7.43;7.13;;;31.20;57.10;;;;;;5000200;28;20484;-64
2021/08/10 10:37:25;;;;;;;7.70;7.23;;;31.40;54.50;;;;;;4997010;28;20838;-64
2021/08/10 10:40:06;;;;;;;7.07;6.77;;;31.60;54.30;;;;;;4995874;28;20541;-64
2021/08/10 10:42:34;;;;;;;6.67;6.37;;;31.70;53.70;;;;;;4995700;28;20438;-65
2021/08/10 10:45:02;;;;;;;7.50;7.20;;;32.00;54.50;;;;;;4997753;28;20459;-65
2021/08/10 10:47:39;;;;;;;7.17;6.87;;;32.20;53.90;;;;;;4995690;28;20446;-64
2021/08/10 10:50:11;;;;;;;7.40;7.10;;;32.10;52.60;;;;;;4998490;28;20472;-65
2021/08/10 10:52:40;;;;;;;8.63;7.80;;;31.80;53.30;;;;;;4997956;28;20431;-66
2021/08/10 10:55:09;;;;;;;6.90;6.70;;;31.80;54.10;;;;;;4996835;28;20447;-64
2021/08/10 10:57:36;;;;;;;6.30;6.10;;;31.80;52.80;;;;;;4994248;28;20533;-66
2021/08/10 11:00:07;;;;;;;7.10;6.80;;;31.80;52.70;;;;;;4998512;28;20451;-65
2021/08/10 11:02:39;;;;;;;6.37;6.17;;;31.70;53.90;;;;;;5005974;28;20761;-64
2021/08/10 11:05:06;;;;;;;6.90;6.50;;;31.60;51.90;;;;;;5005878;28;20501;-65
2021/08/10 11:07:44;;;;;;;6.60;6.33;;;32.00;52.20;;;;;;4990051;28;20750;-65
2021/08/10 11:10:36;;;;;;;6.77;6.47;;;31.80;51.60;;;;;;5003971;28;20441;-65
2021/08/10 11:13:25;;;;;;;6.93;6.60;;;31.40;52.40;;;;;;4998898;28;20753;-64
2021/08/10 11:15:56;;;;;;;7.07;6.77;;;31.70;53.70;;;;;;4999407;28;20461;-64
2021/08/10 11:18:26;;;;;;;8.13;7.60;;;31.80;53.30;;;;;;4999311;28;20751;-66
2021/08/10 11:21:14;;;;;;;7.80;7.40;;;32.00;53.10;;;;;;5000596;28;20630;-65
2021/08/10 11:23:42;;;;;;;7.80;7.40;;;31.80;54.00;;;;;;4989095;28;20442;-65
2021/08/10 11:26:11;;;;;;;8.03;7.63;;;31.90;54.80;;;;;;4998291;28;20451;-64
2021/08/10 11:28:47;;;;;;;7.43;6.97;;;31.60;54.70;;;;;;4998717;28;20455;-63
2021/08/10 11:31:30;;;;;;;7.20;6.80;;;31.10;55.50;;;;;;5000569;28;20485;-65
2021/08/10 11:33:58;;;;;;;7.27;6.97;;;30.80;55.50;;;;;;5000574;28;20677;-66
2021/08/10 11:36:26;;;;;;;8.40;7.73;;;30.40;56.80;;;;;;5001201;28;20825;-65
2021/08/10 11:38:53;;;;;;;8.90;8.10;;;29.80;57.20;;;;;;5007053;28;20504;-65
2021/08/10 11:41:31;;;;;;;6.97;6.77;;;29.60;58.90;;;;;;5003816;28;20966;-65
2021/08/10 11:44:04;;;;;;;7.20;6.93;;;29.80;60.60;;;;;;4998121;28;20843;-65
2021/08/10 11:46:32;;;;;;;7.10;6.80;;;29.80;59.70;;;;;;4997224;28;20446;-65
2021/08/10 11:49:07;;;;;;;7.80;7.40;;;29.90;58.70;;;;;;5036518;28;20432;-66
2021/08/10 11:51:38;;;;;;;7.80;7.40;;;30.30;60.60;;;;;;4995320;28;20474;-65
2021/08/10 11:54:17;;;;;;;7.43;7.13;;;30.60;60.00;;;;;;5010622;28;20437;-65
2021/08/10 11:56:46;;;;;;;7.03;6.63;;;30.70;58.50;;;;;;4996959;28;20473;-64
2021/08/10 11:59:24;;;;;;;7.30;7.10;;;30.70;57.60;;;;;;5006937;28;20448;-65
2021/08/10 12:01:54;;;;;;;7.73;7.23;;;30.50;59.20;;;;;;4993592;28;20447;-65
2021/08/10 12:04:24;;;;;;;8.93;7.73;;;30.00;58.50;;;;;;4995544;28;21005;-65
2021/08/10 12:06:54;;;;;;;7.90;7.50;;;29.60;61.00;;;;;;4995411;28;20629;-67
2021/08/10 12:09:25;;;;;;;7.90;7.60;;;29.40;60.00;;;;;;4996685;28;20569;-67
2021/08/10 12:11:55;;;;;;;7.83;7.43;;;29.20;60.90;;;;;;4994066;28;20435;-66
2021/08/10 12:14:25;;;;;;;6.93;6.70;;;29.30;62.40;;;;;;4998315;28;20809;-66
2021/08/10 12:17:08;;;;;;;8.00;7.50;;;29.10;62.30;;;;;;5001073;28;20506;-66
2021/08/10 12:19:36;;;;;;;7.30;6.90;;;29.10;60.60;;;;;;4993382;28;20443;-64
2021/08/10 12:22:25;;;;;;;8.40;7.70;;;29.00;60.80;;;;;;4991846;28;20435;-65
2021/08/10 12:24:59;;;;;;;7.63;7.33;;;29.20;61.10;;;;;;4985053;28;20506;-64
2021/08/10 12:27:31;;;;;;;6.83;6.63;;;29.20;62.10;;;;;;4992129;28;20456;-64
2021/08/10 12:30:00;;;;;;;7.20;6.90;;;29.50;62.70;;;;;;4989303;28;20464;-65
2021/08/10 12:32:29;;;;;;;8.37;7.87;;;29.90;61.40;;;;;;5004853;28;20494;-65
2021/08/10 12:35:06;;;;;;;7.63;7.23;;;30.20;60.10;;;;;;5005069;28;20533;-65
2021/08/10 12:37:38;;;;;;;7.00;6.80;;;30.50;60.20;;;;;;4994271;28;20510;-64
2021/08/10 12:40:12;;;;;;;7.87;7.40;;;30.50;58.40;;;;;;4982444;28;20437;-64
2021/08/10 12:42:39;;;;;;;7.50;7.10;;;30.40;58.50;;;;;;4998048;28;20437;-64
2021/08/10 12:45:07;;;;;;;6.63;6.43;;;30.40;59.20;;;;;;4982875;28;20495;-65
2021/08/10 12:47:37;;;;;;;6.93;6.63;;;30.30;58.90;;;;;;4979951;28;20446;-64
2021/08/10 12:50:27;;;;;;;6.40;6.10;;;30.00;58.90;;;;;;5005675;28;20495;-67
2021/08/10 12:52:54;;;;;;;7.37;6.87;;;29.60;59.30;;;;;;4998369;28;20514;-64
2021/08/10 12:55:22;;;;;;;7.33;7.03;;;29.50;61.10;;;;;;4998181;28;20810;-64
2021/08/10 12:57:59;;;;;;;8.37;7.70;;;29.50;61.00;;;;;;4997942;28;20694;-65
2021/08/10 13:00:27;;;;;;;7.20;6.67;;;29.80;61.00;;;;;;4997303;28;20506;-65
2021/08/10 13:02:54;;;;;;;7.20;6.80;;;29.90;59.00;;;;;;4997029;28;20435;-64